sensor_id;sensor_type;location;lat;lon;timestamp;P1;durP1;ratioP1;P2;durP2;ratioP2
71558;SDS011;59382;43.852;25.952;2023-04-24T00:02:12;3.42;;;2.60;;
71558;SDS011;59382;43.852;25.952;2023-04-24T00:04:38;3.80;;;2.70;;
71558;SDS011;59382;43.852;25.952;2023-04-24T00:07:10;3.42;;;2.95;;
71558;SDS011;59382;43.852;25.952;2023-04-24T00:09:38;4.35;;;2.60;;
71558;SDS011;59382;43.852;25.952;2023-04-24T00:12:03;5.03;;;3.03;;
71558;SDS011;59382;43.852;25.952;2023-04-24T00:14:29;2.65;;;2.28;;
71558;SDS011;59382;43.852;25.952;2023-04-24T00:16:55;3.55;;;2.60;;
71558;SDS011;59382;43.852;25.952;2023-04-24T00:19:21;3.17;;;2.38;;
71558;SDS011;59382;43.852;25.952;2023-04-24T00:21:47;2.88;;;2.42;;
71558;SDS011;59382;43.852;25.952;2023-04-24T00:24:15;3.17;;;2.55;;
71558;SDS011;59382;43.852;25.952;2023-04-24T00:26:41;8.18;;;2.70;;
71558;SDS011;59382;43.852;25.952;2023-04-24T00:29:07;2.50;;;2.30;;
71558;SDS011;59382;43.852;25.952;2023-04-24T00:31:32;5.22;;;2.35;;
71558;SDS011;59382;43.852;25.952;2023-04-24T00:34:00;4.10;;;2.50;;
71558;SDS011;59382;43.852;25.952;2023-04-24T00:36:29;3.42;;;2.55;;
71558;SDS011;59382;43.852;25.952;2023-04-24T00:38:58;5.35;;;2.90;;
71558;SDS011;59382;43.852;25.952;2023-04-24T00:41:24;3.60;;;2.55;;
71558;SDS011;59382;43.852;25.952;2023-04-24T00:43:51;3.10;;;2.35;;
71558;SDS011;59382;43.852;25.952;2023-04-24T00:46:17;5.10;;;2.55;;
71558;SDS011;59382;43.852;25.952;2023-04-24T00:48:42;8.90;;;2.70;;
71558;SDS011;59382;43.852;25.952;2023-04-24T00:51:08;5.50;;;2.22;;
71558;SDS011;59382;43.852;25.952;2023-04-24T00:53:34;3.63;;;2.58;;
71558;SDS011;59382;43.852;25.952;2023-04-24T00:56:00;2.92;;;2.47;;
71558;SDS011;59382;43.852;25.952;2023-04-24T00:58:27;4.82;;;2.75;;
71558;SDS011;59382;43.852;25.952;2023-04-24T01:00:53;3.00;;;2.67;;
71558;SDS011;59382;43.852;25.952;2023-04-24T01:03:21;3.83;;;2.60;;
71558;SDS011;59382;43.852;25.952;2023-04-24T01:05:48;7.10;;;2.70;;
71558;SDS011;59382;43.852;25.952;2023-04-24T01:08:14;5.65;;;2.42;;
71558;SDS011;59382;43.852;25.952;2023-04-24T01:10:40;4.82;;;2.45;;
71558;SDS011;59382;43.852;25.952;2023-04-24T01:13:07;5.65;;;2.50;;
71558;SDS011;59382;43.852;25.952;2023-04-24T01:15:36;2.60;;;2.40;;
71558;SDS011;59382;43.852;25.952;2023-04-24T01:18:02;3.50;;;2.60;;
71558;SDS011;59382;43.852;25.952;2023-04-24T01:20:28;6.35;;;2.33;;
71558;SDS011;59382;43.852;25.952;2023-04-24T01:22:55;5.72;;;2.20;;
71558;SDS011;59382;43.852;25.952;2023-04-24T01:25:21;4.28;;;2.33;;
71558;SDS011;59382;43.852;25.952;2023-04-24T01:27:50;5.35;;;2.95;;
71558;SDS011;59382;43.852;25.952;2023-04-24T01:30:16;7.28;;;2.50;;
71558;SDS011;59382;43.852;25.952;2023-04-24T01:32:42;6.20;;;2.50;;
71558;SDS011;59382;43.852;25.952;2023-04-24T01:35:09;4.10;;;3.00;;
71558;SDS011;59382;43.852;25.952;2023-04-24T01:37:35;6.20;;;3.33;;
71558;SDS011;59382;43.852;25.952;2023-04-24T01:40:02;2.90;;;2.40;;
71558;SDS011;59382;43.852;25.952;2023-04-24T01:42:30;3.85;;;2.83;;
71558;SDS011;59382;43.852;25.952;2023-04-24T01:44:56;4.78;;;2.72;;
71558;SDS011;59382;43.852;25.952;2023-04-24T01:47:22;5.75;;;3.03;;
71558;SDS011;59382;43.852;25.952;2023-04-24T01:49:48;7.82;;;2.80;;
71558;SDS011;59382;43.852;25.952;2023-04-24T01:52:15;3.42;;;2.67;;
71558;SDS011;59382;43.852;25.952;2023-04-24T01:54:41;4.63;;;2.53;;
71558;SDS011;59382;43.852;25.952;2023-04-24T01:57:07;6.82;;;2.53;;
71558;SDS011;59382;43.852;25.952;2023-04-24T01:59:33;2.45;;;2.20;;
71558;SDS011;59382;43.852;25.952;2023-04-24T02:02:01;8.82;;;2.55;;
71558;SDS011;59382;43.852;25.952;2023-04-24T02:04:27;5.07;;;2.70;;
71558;SDS011;59382;43.852;25.952;2023-04-24T02:06:53;6.47;;;2.92;;
71558;SDS011;59382;43.852;25.952;2023-04-24T02:09:20;2.67;;;2.33;;
71558;SDS011;59382;43.852;25.952;2023-04-24T02:11:45;7.47;;;2.92;;
71558;SDS011;59382;43.852;25.952;2023-04-24T02:14:11;2.92;;;2.60;;
71558;SDS011;59382;43.852;25.952;2023-04-24T02:16:36;7.47;;;2.80;;
71558;SDS011;59382;43.852;25.952;2023-04-24T02:19:02;3.67;;;2.30;;
71558;SDS011;59382;43.852;25.952;2023-04-24T02:21:28;9.27;;;2.90;;
71558;SDS011;59382;43.852;25.952;2023-04-24T02:23:55;5.85;;;2.65;;
71558;SDS011;59382;43.852;25.952;2023-04-24T02:26:21;4.20;;;2.60;;
71558;SDS011;59382;43.852;25.952;2023-04-24T02:28:47;15.02;;;2.55;;
71558;SDS011;59382;43.852;25.952;2023-04-24T02:31:12;7.15;;;2.35;;
71558;SDS011;59382;43.852;25.952;2023-04-24T02:33:38;3.35;;;2.45;;
71558;SDS011;59382;43.852;25.952;2023-04-24T02:36:06;8.30;;;2.33;;
71558;SDS011;59382;43.852;25.952;2023-04-24T02:38:32;3.72;;;2.58;;
71558;SDS011;59382;43.852;25.952;2023-04-24T02:40:58;5.15;;;2.60;;
71558;SDS011;59382;43.852;25.952;2023-04-24T02:43:24;5.10;;;2.72;;
71558;SDS011;59382;43.852;25.952;2023-04-24T02:45:49;3.60;;;3.08;;
71558;SDS011;59382;43.852;25.952;2023-04-24T02:48:15;6.57;;;2.97;;
71558;SDS011;59382;43.852;25.952;2023-04-24T02:50:42;8.63;;;2.95;;
71558;SDS011;59382;43.852;25.952;2023-04-24T02:53:07;4.95;;;3.00;;
71558;SDS011;59382;43.852;25.952;2023-04-24T02:55:33;9.90;;;3.13;;
71558;SDS011;59382;43.852;25.952;2023-04-24T02:58:05;11.35;;;3.42;;
71558;SDS011;59382;43.852;25.952;2023-04-24T03:00:31;8.32;;;3.15;;
71558;SDS011;59382;43.852;25.952;2023-04-24T03:02:56;6.45;;;3.20;;
71558;SDS011;59382;43.852;25.952;2023-04-24T03:05:22;7.57;;;3.35;;
71558;SDS011;59382;43.852;25.952;2023-04-24T03:07:47;3.15;;;2.85;;
71558;SDS011;59382;43.852;25.952;2023-04-24T03:10:13;5.63;;;2.80;;
71558;SDS011;59382;43.852;25.952;2023-04-24T03:12:38;5.97;;;3.10;;
71558;SDS011;59382;43.852;25.952;2023-04-24T03:15:04;4.60;;;2.70;;
71558;SDS011;59382;43.852;25.952;2023-04-24T03:17:30;8.43;;;2.75;;
71558;SDS011;59382;43.852;25.952;2023-04-24T03:19:56;7.35;;;3.50;;
71558;SDS011;59382;43.852;25.952;2023-04-24T03:22:21;4.18;;;3.22;;
71558;SDS011;59382;43.852;25.952;2023-04-24T03:24:47;3.25;;;2.65;;
71558;SDS011;59382;43.852;25.952;2023-04-24T03:27:12;6.47;;;3.72;;
71558;SDS011;59382;43.852;25.952;2023-04-24T03:29:38;5.38;;;3.10;;
71558;SDS011;59382;43.852;25.952;2023-04-24T03:32:04;10.32;;;3.80;;
71558;SDS011;59382;43.852;25.952;2023-04-24T03:34:30;5.72;;;3.35;;
71558;SDS011;59382;43.852;25.952;2023-04-24T03:36:56;4.15;;;3.05;;
71558;SDS011;59382;43.852;25.952;2023-04-24T03:39:21;4.18;;;2.85;;
71558;SDS011;59382;43.852;25.952;2023-04-24T03:41:47;6.45;;;3.33;;
71558;SDS011;59382;43.852;25.952;2023-04-24T03:44:12;6.55;;;3.35;;
71558;SDS011;59382;43.852;25.952;2023-04-24T03:46:38;4.50;;;3.17;;
71558;SDS011;59382;43.852;25.952;2023-04-24T03:49:03;16.23;;;5.00;;
71558;SDS011;59382;43.852;25.952;2023-04-24T03:51:31;26.63;;;6.90;;
71558;SDS011;59382;43.852;25.952;2023-04-24T03:53:57;8.73;;;3.97;;
71558;SDS011;59382;43.852;25.952;2023-04-24T03:56:23;12.50;;;3.95;;
71558;SDS011;59382;43.852;25.952;2023-04-24T03:58:48;7.40;;;3.50;;
71558;SDS011;59382;43.852;25.952;2023-04-24T04:01:13;4.65;;;3.08;;
71558;SDS011;59382;43.852;25.952;2023-04-24T04:03:41;6.68;;;3.67;;
71558;SDS011;59382;43.852;25.952;2023-04-24T04:06:07;10.25;;;3.88;;
71558;SDS011;59382;43.852;25.952;2023-04-24T04:08:33;3.95;;;2.83;;
71558;SDS011;59382;43.852;25.952;2023-04-24T04:10:59;9.05;;;3.60;;
71558;SDS011;59382;43.852;25.952;2023-04-24T04:13:25;7.78;;;3.22;;
71558;SDS011;59382;43.852;25.952;2023-04-24T04:15:51;16.75;;;3.20;;
71558;SDS011;59382;43.852;25.952;2023-04-24T04:18:16;19.95;;;3.83;;
71558;SDS011;59382;43.852;25.952;2023-04-24T04:20:42;11.98;;;2.92;;
71558;SDS011;59382;43.852;25.952;2023-04-24T04:23:08;15.63;;;3.83;;
71558;SDS011;59382;43.852;25.952;2023-04-24T04:25:34;9.60;;;3.13;;
71558;SDS011;59382;43.852;25.952;2023-04-24T04:28:00;9.40;;;3.95;;
71558;SDS011;59382;43.852;25.952;2023-04-24T04:30:32;14.02;;;4.32;;
71558;SDS011;59382;43.852;25.952;2023-04-24T04:33:05;11.43;;;3.20;;
71558;SDS011;59382;43.852;25.952;2023-04-24T04:35:33;7.60;;;3.72;;
71558;SDS011;59382;43.852;25.952;2023-04-24T04:38:01;4.93;;;3.90;;
71558;SDS011;59382;43.852;25.952;2023-04-24T04:40:29;8.38;;;3.95;;
71558;SDS011;59382;43.852;25.952;2023-04-24T04:42:55;10.50;;;4.00;;
71558;SDS011;59382;43.852;25.952;2023-04-24T04:45:24;13.65;;;4.25;;
71558;SDS011;59382;43.852;25.952;2023-04-24T04:47:52;13.10;;;3.97;;
71558;SDS011;59382;43.852;25.952;2023-04-24T04:50:22;7.93;;;4.22;;
71558;SDS011;59382;43.852;25.952;2023-04-24T04:52:48;6.70;;;4.20;;
71558;SDS011;59382;43.852;25.952;2023-04-24T04:55:27;15.07;;;4.47;;
71558;SDS011;59382;43.852;25.952;2023-04-24T04:57:53;17.83;;;4.85;;
71558;SDS011;59382;43.852;25.952;2023-04-24T05:00:22;35.17;;;7.20;;
71558;SDS011;59382;43.852;25.952;2023-04-24T05:02:50;17.55;;;6.15;;
71558;SDS011;59382;43.852;25.952;2023-04-24T05:05:19;19.13;;;5.80;;
71558;SDS011;59382;43.852;25.952;2023-04-24T05:07:50;16.02;;;4.72;;
71558;SDS011;59382;43.852;25.952;2023-04-24T05:10:16;11.85;;;3.90;;
71558;SDS011;59382;43.852;25.952;2023-04-24T05:12:44;12.00;;;3.97;;
71558;SDS011;59382;43.852;25.952;2023-04-24T05:15:10;31.00;;;4.75;;
71558;SDS011;59382;43.852;25.952;2023-04-24T05:17:38;13.05;;;4.28;;
71558;SDS011;59382;43.852;25.952;2023-04-24T05:20:07;4.75;;;3.92;;
71558;SDS011;59382;43.852;25.952;2023-04-24T05:22:34;12.23;;;4.28;;
71558;SDS011;59382;43.852;25.952;2023-04-24T05:25:03;26.70;;;4.70;;
71558;SDS011;59382;43.852;25.952;2023-04-24T05:27:33;7.35;;;4.60;;
71558;SDS011;59382;43.852;25.952;2023-04-24T05:29:59;7.85;;;4.05;;
71558;SDS011;59382;43.852;25.952;2023-04-24T05:32:25;9.13;;;4.10;;
71558;SDS011;59382;43.852;25.952;2023-04-24T05:34:55;12.32;;;5.00;;
71558;SDS011;59382;43.852;25.952;2023-04-24T05:37:21;17.23;;;5.15;;
71558;SDS011;59382;43.852;25.952;2023-04-24T05:39:55;9.10;;;4.00;;
71558;SDS011;59382;43.852;25.952;2023-04-24T05:42:21;13.63;;;5.88;;
71558;SDS011;59382;43.852;25.952;2023-04-24T05:44:49;11.43;;;5.05;;
71558;SDS011;59382;43.852;25.952;2023-04-24T05:47:15;13.55;;;4.10;;
71558;SDS011;59382;43.852;25.952;2023-04-24T05:49:46;12.70;;;3.92;;
71558;SDS011;59382;43.852;25.952;2023-04-24T05:52:15;16.70;;;5.30;;
71558;SDS011;59382;43.852;25.952;2023-04-24T05:54:41;10.77;;;3.80;;
71558;SDS011;59382;43.852;25.952;2023-04-24T05:57:15;12.95;;;4.13;;
71558;SDS011;59382;43.852;25.952;2023-04-24T05:59:44;18.27;;;4.63;;
71558;SDS011;59382;43.852;25.952;2023-04-24T06:02:10;18.05;;;3.95;;
71558;SDS011;59382;43.852;25.952;2023-04-24T06:04:44;18.92;;;4.72;;
71558;SDS011;59382;43.852;25.952;2023-04-24T06:07:13;22.48;;;4.50;;
71558;SDS011;59382;43.852;25.952;2023-04-24T06:09:42;14.50;;;4.47;;
71558;SDS011;59382;43.852;25.952;2023-04-24T06:12:08;20.92;;;4.85;;
71558;SDS011;59382;43.852;25.952;2023-04-24T06:14:36;9.90;;;3.90;;
71558;SDS011;59382;43.852;25.952;2023-04-24T06:17:08;6.68;;;3.33;;
71558;SDS011;59382;43.852;25.952;2023-04-24T06:19:38;13.95;;;3.97;;
71558;SDS011;59382;43.852;25.952;2023-04-24T06:22:06;12.80;;;3.33;;
71558;SDS011;59382;43.852;25.952;2023-04-24T06:24:35;10.27;;;3.72;;
71558;SDS011;59382;43.852;25.952;2023-04-24T06:27:08;8.18;;;3.05;;
71558;SDS011;59382;43.852;25.952;2023-04-24T06:29:36;20.88;;;4.05;;
71558;SDS011;59382;43.852;25.952;2023-04-24T06:32:02;27.45;;;5.30;;
71558;SDS011;59382;43.852;25.952;2023-04-24T06:34:28;15.95;;;3.97;;
71558;SDS011;59382;43.852;25.952;2023-04-24T06:36:53;9.73;;;3.72;;
71558;SDS011;59382;43.852;25.952;2023-04-24T06:39:24;6.40;;;3.45;;
71558;SDS011;59382;43.852;25.952;2023-04-24T06:41:50;16.08;;;5.30;;
71558;SDS011;59382;43.852;25.952;2023-04-24T06:44:16;6.22;;;2.75;;
71558;SDS011;59382;43.852;25.952;2023-04-24T06:46:42;7.90;;;2.97;;
71558;SDS011;59382;43.852;25.952;2023-04-24T06:49:07;6.30;;;2.13;;
71558;SDS011;59382;43.852;25.952;2023-04-24T06:51:33;9.88;;;2.10;;
71558;SDS011;59382;43.852;25.952;2023-04-24T06:53:59;7.65;;;2.70;;
71558;SDS011;59382;43.852;25.952;2023-04-24T06:56:25;5.47;;;2.50;;
71558;SDS011;59382;43.852;25.952;2023-04-24T06:58:51;5.10;;;2.97;;
71558;SDS011;59382;43.852;25.952;2023-04-24T07:01:17;17.42;;;2.85;;
71558;SDS011;59382;43.852;25.952;2023-04-24T07:03:42;11.32;;;2.70;;
71558;SDS011;59382;43.852;25.952;2023-04-24T07:06:08;8.75;;;2.97;;
71558;SDS011;59382;43.852;25.952;2023-04-24T07:08:36;13.93;;;2.78;;
71558;SDS011;59382;43.852;25.952;2023-04-24T07:11:02;11.00;;;3.15;;
71558;SDS011;59382;43.852;25.952;2023-04-24T07:13:28;5.15;;;3.03;;
71558;SDS011;59382;43.852;25.952;2023-04-24T07:15:54;9.90;;;3.13;;
71558;SDS011;59382;43.852;25.952;2023-04-24T07:18:23;9.30;;;2.83;;
71558;SDS011;59382;43.852;25.952;2023-04-24T07:20:49;5.28;;;2.67;;
71558;SDS011;59382;43.852;25.952;2023-04-24T07:23:18;6.80;;;2.70;;
71558;SDS011;59382;43.852;25.952;2023-04-24T07:25:45;4.47;;;2.47;;
71558;SDS011;59382;43.852;25.952;2023-04-24T07:28:10;9.38;;;3.22;;
71558;SDS011;59382;43.852;25.952;2023-04-24T07:30:36;10.13;;;4.22;;
71558;SDS011;59382;43.852;25.952;2023-04-24T07:33:02;31.10;;;5.50;;
71558;SDS011;59382;43.852;25.952;2023-04-24T07:35:27;23.90;;;4.20;;
71558;SDS011;59382;43.852;25.952;2023-04-24T07:37:53;11.13;;;3.25;;
71558;SDS011;59382;43.852;25.952;2023-04-24T07:40:19;12.15;;;3.05;;
71558;SDS011;59382;43.852;25.952;2023-04-24T07:42:45;20.65;;;4.82;;
71558;SDS011;59382;43.852;25.952;2023-04-24T07:45:13;35.10;;;7.70;;
71558;SDS011;59382;43.852;25.952;2023-04-24T07:47:40;18.80;;;4.65;;
71558;SDS011;59382;43.852;25.952;2023-04-24T07:50:08;8.23;;;2.80;;
71558;SDS011;59382;43.852;25.952;2023-04-24T07:52:38;10.18;;;3.17;;
71558;SDS011;59382;43.852;25.952;2023-04-24T07:55:04;7.65;;;2.70;;
71558;SDS011;59382;43.852;25.952;2023-04-24T07:57:30;37.17;;;6.30;;
71558;SDS011;59382;43.852;25.952;2023-04-24T07:59:55;20.92;;;7.22;;
71558;SDS011;59382;43.852;25.952;2023-04-24T08:02:21;14.98;;;6.25;;
71558;SDS011;59382;43.852;25.952;2023-04-24T08:04:51;13.90;;;5.78;;
71558;SDS011;59382;43.852;25.952;2023-04-24T08:07:19;19.50;;;6.05;;
71558;SDS011;59382;43.852;25.952;2023-04-24T08:09:44;14.00;;;4.75;;
71558;SDS011;59382;43.852;25.952;2023-04-24T08:12:10;9.45;;;3.17;;
71558;SDS011;59382;43.852;25.952;2023-04-24T08:14:35;10.48;;;3.50;;
71558;SDS011;59382;43.852;25.952;2023-04-24T08:17:01;15.50;;;4.10;;
71558;SDS011;59382;43.852;25.952;2023-04-24T08:19:27;49.47;;;4.35;;
71558;SDS011;59382;43.852;25.952;2023-04-24T08:21:53;23.92;;;4.05;;
71558;SDS011;59382;43.852;25.952;2023-04-24T08:24:18;6.65;;;2.22;;
71558;SDS011;59382;43.852;25.952;2023-04-24T08:26:44;27.35;;;3.72;;
71558;SDS011;59382;43.852;25.952;2023-04-24T08:29:09;14.20;;;3.30;;
71558;SDS011;59382;43.852;25.952;2023-04-24T08:31:35;7.00;;;2.72;;
71558;SDS011;59382;43.852;25.952;2023-04-24T08:34:01;8.68;;;3.00;;
71558;SDS011;59382;43.852;25.952;2023-04-24T08:36:27;6.57;;;2.40;;
71558;SDS011;59382;43.852;25.952;2023-04-24T08:38:53;6.07;;;2.30;;
71558;SDS011;59382;43.852;25.952;2023-04-24T08:41:18;16.92;;;3.28;;
71558;SDS011;59382;43.852;25.952;2023-04-24T08:43:47;12.80;;;3.13;;
71558;SDS011;59382;43.852;25.952;2023-04-24T08:46:13;5.53;;;2.30;;
71558;SDS011;59382;43.852;25.952;2023-04-24T08:48:41;18.77;;;3.30;;
71558;SDS011;59382;43.852;25.952;2023-04-24T08:51:10;10.57;;;2.95;;
71558;SDS011;59382;43.852;25.952;2023-04-24T08:53:36;6.03;;;2.67;;
71558;SDS011;59382;43.852;25.952;2023-04-24T08:56:02;13.13;;;3.10;;
71558;SDS011;59382;43.852;25.952;2023-04-24T08:58:28;8.75;;;3.05;;
71558;SDS011;59382;43.852;25.952;2023-04-24T09:00:55;9.75;;;4.65;;
71558;SDS011;59382;43.852;25.952;2023-04-24T09:03:21;5.38;;;3.22;;
71558;SDS011;59382;43.852;25.952;2023-04-24T09:05:47;8.30;;;3.28;;
71558;SDS011;59382;43.852;25.952;2023-04-24T09:08:16;5.80;;;3.20;;
71558;SDS011;59382;43.852;25.952;2023-04-24T09:10:46;4.50;;;3.30;;
71558;SDS011;59382;43.852;25.952;2023-04-24T09:13:11;8.63;;;2.92;;
71558;SDS011;59382;43.852;25.952;2023-04-24T09:15:38;10.23;;;3.80;;
71558;SDS011;59382;43.852;25.952;2023-04-24T09:18:05;8.38;;;2.78;;
71558;SDS011;59382;43.852;25.952;2023-04-24T09:20:31;15.38;;;4.45;;
71558;SDS011;59382;43.852;25.952;2023-04-24T09:22:57;11.90;;;4.50;;
71558;SDS011;59382;43.852;25.952;2023-04-24T09:25:33;9.43;;;3.53;;
71558;SDS011;59382;43.852;25.952;2023-04-24T09:28:02;9.25;;;2.67;;
71558;SDS011;59382;43.852;25.952;2023-04-24T09:30:29;5.72;;;2.60;;
71558;SDS011;59382;43.852;25.952;2023-04-24T09:35:40;5.78;;;2.50;;
71558;SDS011;59382;43.852;25.952;2023-04-24T09:38:08;9.75;;;2.67;;
71558;SDS011;59382;43.852;25.952;2023-04-24T09:40:35;10.95;;;2.42;;
71558;SDS011;59382;43.852;25.952;2023-04-24T09:43:01;9.65;;;2.92;;
71558;SDS011;59382;43.852;25.952;2023-04-24T09:45:39;3.05;;;2.38;;
71558;SDS011;59382;43.852;25.952;2023-04-24T09:48:05;8.98;;;3.83;;
71558;SDS011;59382;43.852;25.952;2023-04-24T09:50:35;8.98;;;2.88;;
71558;SDS011;59382;43.852;25.952;2023-04-24T09:53:04;6.13;;;2.38;;
71558;SDS011;59382;43.852;25.952;2023-04-24T09:55:32;6.88;;;2.35;;
71558;SDS011;59382;43.852;25.952;2023-04-24T09:57:58;4.72;;;2.72;;
71558;SDS011;59382;43.852;25.952;2023-04-24T10:00:31;7.63;;;2.60;;
71558;SDS011;59382;43.852;25.952;2023-04-24T10:03:01;9.77;;;2.58;;
71558;SDS011;59382;43.852;25.952;2023-04-24T10:08:00;6.47;;;2.95;;
71558;SDS011;59382;43.852;25.952;2023-04-24T10:10:28;4.43;;;3.10;;
71558;SDS011;59382;43.852;25.952;2023-04-24T10:12:54;11.32;;;2.90;;
71558;SDS011;59382;43.852;25.952;2023-04-24T10:15:20;5.57;;;2.60;;
71558;SDS011;59382;43.852;25.952;2023-04-24T10:17:50;7.43;;;2.65;;
71558;SDS011;59382;43.852;25.952;2023-04-24T10:20:23;4.60;;;2.60;;
71558;SDS011;59382;43.852;25.952;2023-04-24T10:22:50;4.60;;;2.22;;
71558;SDS011;59382;43.852;25.952;2023-04-24T10:25:20;5.25;;;3.05;;
71558;SDS011;59382;43.852;25.952;2023-04-24T10:27:48;5.25;;;2.28;;
71558;SDS011;59382;43.852;25.952;2023-04-24T10:30:15;5.65;;;2.95;;
71558;SDS011;59382;43.852;25.952;2023-04-24T10:32:41;2.80;;;2.40;;
71558;SDS011;59382;43.852;25.952;2023-04-24T10:35:07;6.85;;;3.28;;
71558;SDS011;59382;43.852;25.952;2023-04-24T10:37:38;5.93;;;2.83;;
71558;SDS011;59382;43.852;25.952;2023-04-24T10:40:07;9.15;;;2.72;;
71558;SDS011;59382;43.852;25.952;2023-04-24T10:42:35;17.17;;;3.45;;
71558;SDS011;59382;43.852;25.952;2023-04-24T10:45:05;16.92;;;2.47;;
71558;SDS011;59382;43.852;25.952;2023-04-24T10:47:40;9.80;;;3.03;;
71558;SDS011;59382;43.852;25.952;2023-04-24T10:50:09;15.70;;;2.75;;
71558;SDS011;59382;43.852;25.952;2023-04-24T10:52:46;19.08;;;2.35;;
71558;SDS011;59382;43.852;25.952;2023-04-24T10:55:13;6.25;;;2.53;;
71558;SDS011;59382;43.852;25.952;2023-04-24T10:58:03;11.23;;;3.28;;
71558;SDS011;59382;43.852;25.952;2023-04-24T11:00:29;7.38;;;3.10;;
71558;SDS011;59382;43.852;25.952;2023-04-24T11:02:54;9.25;;;2.92;;
71558;SDS011;59382;43.852;25.952;2023-04-24T11:05:20;10.98;;;2.75;;
71558;SDS011;59382;43.852;25.952;2023-04-24T11:10:44;8.32;;;2.55;;
71558;SDS011;59382;43.852;25.952;2023-04-24T11:13:14;6.90;;;2.42;;
71558;SDS011;59382;43.852;25.952;2023-04-24T11:15:43;24.70;;;3.50;;
71558;SDS011;59382;43.852;25.952;2023-04-24T11:18:17;10.50;;;3.00;;
71558;SDS011;59382;43.852;25.952;2023-04-24T11:20:43;11.30;;;2.85;;
71558;SDS011;59382;43.852;25.952;2023-04-24T11:23:12;8.23;;;2.50;;
71558;SDS011;59382;43.852;25.952;2023-04-24T11:25:38;4.72;;;2.55;;
71558;SDS011;59382;43.852;25.952;2023-04-24T11:28:04;11.52;;;3.10;;
71558;SDS011;59382;43.852;25.952;2023-04-24T11:30:31;6.07;;;2.78;;
71558;SDS011;59382;43.852;25.952;2023-04-24T11:33:01;6.40;;;2.58;;
71558;SDS011;59382;43.852;25.952;2023-04-24T11:35:29;8.43;;;2.92;;
71558;SDS011;59382;43.852;25.952;2023-04-24T11:37:55;5.72;;;2.33;;
71558;SDS011;59382;43.852;25.952;2023-04-24T11:40:23;7.18;;;2.55;;
71558;SDS011;59382;43.852;25.952;2023-04-24T11:42:51;7.72;;;2.90;;
71558;SDS011;59382;43.852;25.952;2023-04-24T11:45:27;12.65;;;2.92;;
71558;SDS011;59382;43.852;25.952;2023-04-24T11:47:54;4.70;;;2.53;;
71558;SDS011;59382;43.852;25.952;2023-04-24T11:50:21;11.32;;;2.55;;
71558;SDS011;59382;43.852;25.952;2023-04-24T11:52:49;10.23;;;2.33;;
71558;SDS011;59382;43.852;25.952;2023-04-24T11:57:47;5.78;;;2.38;;
71558;SDS011;59382;43.852;25.952;2023-04-24T12:02:44;9.52;;;2.80;;
71558;SDS011;59382;43.852;25.952;2023-04-24T12:05:26;7.35;;;2.85;;
71558;SDS011;59382;43.852;25.952;2023-04-24T12:07:52;18.05;;;3.13;;
71558;SDS011;59382;43.852;25.952;2023-04-24T12:10:24;6.90;;;3.10;;
71558;SDS011;59382;43.852;25.952;2023-04-24T12:12:52;60.20;;;6.28;;
71558;SDS011;59382;43.852;25.952;2023-04-24T12:15:21;9.55;;;2.85;;
71558;SDS011;59382;43.852;25.952;2023-04-24T12:17:51;8.82;;;2.90;;
71558;SDS011;59382;43.852;25.952;2023-04-24T12:20:17;14.05;;;3.47;;
71558;SDS011;59382;43.852;25.952;2023-04-24T12:22:53;18.15;;;3.53;;
71558;SDS011;59382;43.852;25.952;2023-04-24T12:25:29;12.18;;;3.90;;
71558;SDS011;59382;43.852;25.952;2023-04-24T12:30:28;6.90;;;2.67;;
71558;SDS011;59382;43.852;25.952;2023-04-24T12:32:56;5.65;;;3.03;;
71558;SDS011;59382;43.852;25.952;2023-04-24T12:35:23;13.43;;;3.83;;
71558;SDS011;59382;43.852;25.952;2023-04-24T12:37:50;12.63;;;3.30;;
71558;SDS011;59382;43.852;25.952;2023-04-24T12:40:16;8.52;;;3.35;;
71558;SDS011;59382;43.852;25.952;2023-04-24T12:42:44;8.32;;;3.63;;
71558;SDS011;59382;43.852;25.952;2023-04-24T12:45:11;17.15;;;4.03;;
71558;SDS011;59382;43.852;25.952;2023-04-24T12:47:39;13.13;;;3.55;;
71558;SDS011;59382;43.852;25.952;2023-04-24T12:50:10;6.40;;;3.30;;
71558;SDS011;59382;43.852;25.952;2023-04-24T12:52:38;8.40;;;3.45;;
71558;SDS011;59382;43.852;25.952;2023-04-24T12:55:04;10.77;;;3.83;;
71558;SDS011;59382;43.852;25.952;2023-04-24T12:57:33;9.27;;;3.10;;
71558;SDS011;59382;43.852;25.952;2023-04-24T13:00:00;9.05;;;3.40;;
71558;SDS011;59382;43.852;25.952;2023-04-24T13:02:27;4.55;;;2.80;;
71558;SDS011;59382;43.852;25.952;2023-04-24T13:04:56;5.53;;;3.38;;
71558;SDS011;59382;43.852;25.952;2023-04-24T13:07:22;4.95;;;2.78;;
71558;SDS011;59382;43.852;25.952;2023-04-24T13:09:48;16.48;;;3.50;;
71558;SDS011;59382;43.852;25.952;2023-04-24T13:12:14;8.10;;;3.75;;
71558;SDS011;59382;43.852;25.952;2023-04-24T13:14:40;10.18;;;4.20;;
71558;SDS011;59382;43.852;25.952;2023-04-24T13:17:06;15.73;;;3.80;;
71558;SDS011;59382;43.852;25.952;2023-04-24T13:19:39;11.55;;;3.03;;
71558;SDS011;59382;43.852;25.952;2023-04-24T13:22:06;7.93;;;3.45;;
71558;SDS011;59382;43.852;25.952;2023-04-24T13:24:33;3.08;;;2.65;;
71558;SDS011;59382;43.852;25.952;2023-04-24T13:26:59;8.23;;;3.13;;
71558;SDS011;59382;43.852;25.952;2023-04-24T13:29:26;6.10;;;2.83;;
71558;SDS011;59382;43.852;25.952;2023-04-24T13:31:52;7.18;;;2.92;;
71558;SDS011;59382;43.852;25.952;2023-04-24T13:34:21;14.90;;;3.53;;
71558;SDS011;59382;43.852;25.952;2023-04-24T13:36:50;3.15;;;2.55;;
71558;SDS011;59382;43.852;25.952;2023-04-24T13:39:18;7.00;;;3.17;;
71558;SDS011;59382;43.852;25.952;2023-04-24T13:41:43;2.97;;;2.63;;
71558;SDS011;59382;43.852;25.952;2023-04-24T13:44:12;8.20;;;3.97;;
71558;SDS011;59382;43.852;25.952;2023-04-24T13:46:37;22.65;;;7.32;;
71558;SDS011;59382;43.852;25.952;2023-04-24T13:49:03;7.85;;;3.45;;
71558;SDS011;59382;43.852;25.952;2023-04-24T13:51:28;9.13;;;3.42;;
71558;SDS011;59382;43.852;25.952;2023-04-24T13:53:55;8.57;;;3.28;;
71558;SDS011;59382;43.852;25.952;2023-04-24T13:56:23;10.40;;;3.00;;
71558;SDS011;59382;43.852;25.952;2023-04-24T13:58:49;6.28;;;3.05;;
71558;SDS011;59382;43.852;25.952;2023-04-24T14:01:14;17.40;;;4.03;;
71558;SDS011;59382;43.852;25.952;2023-04-24T14:03:41;18.08;;;3.72;;
71558;SDS011;59382;43.852;25.952;2023-04-24T14:06:08;20.13;;;3.58;;
71558;SDS011;59382;43.852;25.952;2023-04-24T14:08:34;9.50;;;3.22;;
71558;SDS011;59382;43.852;25.952;2023-04-24T14:10:59;12.20;;;3.25;;
71558;SDS011;59382;43.852;25.952;2023-04-24T14:13:25;17.80;;;3.83;;
71558;SDS011;59382;43.852;25.952;2023-04-24T14:15:51;5.53;;;3.10;;
71558;SDS011;59382;43.852;25.952;2023-04-24T14:18:17;5.55;;;3.03;;
71558;SDS011;59382;43.852;25.952;2023-04-24T14:20:43;6.32;;;3.15;;
71558;SDS011;59382;43.852;25.952;2023-04-24T14:23:09;9.07;;;3.40;;
71558;SDS011;59382;43.852;25.952;2023-04-24T14:25:36;8.70;;;3.22;;
71558;SDS011;59382;43.852;25.952;2023-04-24T14:28:03;3.22;;;2.92;;
71558;SDS011;59382;43.852;25.952;2023-04-24T14:30:31;10.07;;;5.50;;
71558;SDS011;59382;43.852;25.952;2023-04-24T14:32:56;10.48;;;4.53;;
71558;SDS011;59382;43.852;25.952;2023-04-24T14:35:22;9.75;;;3.63;;
71558;SDS011;59382;43.852;25.952;2023-04-24T14:37:47;4.45;;;3.00;;
71558;SDS011;59382;43.852;25.952;2023-04-24T14:40:14;11.90;;;3.72;;
71558;SDS011;59382;43.852;25.952;2023-04-24T14:42:42;14.10;;;4.55;;
71558;SDS011;59382;43.852;25.952;2023-04-24T14:45:11;8.60;;;3.63;;
71558;SDS011;59382;43.852;25.952;2023-04-24T14:47:36;3.20;;;2.90;;